sensor_id;sensor_type;location;lat;lon;timestamp;P1;durP1;ratioP1;P2;durP2;ratioP2
77262;SDS011;66373;52.334;4.806;2023-03-31T00:00:43;11.40;;;3.50;;
77262;SDS011;66373;52.334;4.806;2023-03-31T00:03:12;9.57;;;3.50;;
77262;SDS011;66373;52.334;4.806;2023-03-31T00:05:47;12.20;;;4.13;;
77262;SDS011;66373;52.334;4.806;2023-03-31T00:08:18;12.10;;;4.13;;
77262;SDS011;66373;52.334;4.806;2023-03-31T00:10:45;9.32;;;3.60;;
77262;SDS011;66373;52.334;4.806;2023-03-31T00:13:13;9.82;;;3.78;;
77262;SDS011;66373;52.334;4.806;2023-03-31T00:15:41;10.88;;;3.47;;
77262;SDS011;66373;52.334;4.806;2023-03-31T00:18:08;11.48;;;3.22;;
77262;SDS011;66373;52.334;4.806;2023-03-31T00:20:35;9.20;;;3.65;;
77262;SDS011;66373;52.334;4.806;2023-03-31T00:23:05;10.27;;;3.33;;
77262;SDS011;66373;52.334;4.806;2023-03-31T00:28:06;6.85;;;3.58;;
77262;SDS011;66373;52.334;4.806;2023-03-31T00:30:36;6.60;;;2.97;;
77262;SDS011;66373;52.334;4.806;2023-03-31T00:33:03;9.32;;;3.75;;
77262;SDS011;66373;52.334;4.806;2023-03-31T00:35:30;8.00;;;3.50;;
77262;SDS011;66373;52.334;4.806;2023-03-31T00:38:05;12.93;;;4.10;;
77262;SDS011;66373;52.334;4.806;2023-03-31T00:40:33;7.55;;;3.38;;
77262;SDS011;66373;52.334;4.806;2023-03-31T00:43:01;8.57;;;3.63;;
77262;SDS011;66373;52.334;4.806;2023-03-31T00:45:29;8.00;;;3.70;;
77262;SDS011;66373;52.334;4.806;2023-03-31T00:48:00;7.03;;;3.30;;
77262;SDS011;66373;52.334;4.806;2023-03-31T00:50:35;6.55;;;3.03;;
77262;SDS011;66373;52.334;4.806;2023-03-31T00:53:09;11.20;;;4.20;;
77262;SDS011;66373;52.334;4.806;2023-03-31T00:55:39;8.13;;;3.50;;
77262;SDS011;66373;52.334;4.806;2023-03-31T00:58:09;9.50;;;2.97;;
77262;SDS011;66373;52.334;4.806;2023-03-31T01:00:38;9.40;;;3.75;;
77262;SDS011;66373;52.334;4.806;2023-03-31T01:03:06;7.53;;;3.40;;
77262;SDS011;66373;52.334;4.806;2023-03-31T01:05:37;11.20;;;3.60;;
77262;SDS011;66373;52.334;4.806;2023-03-31T01:08:11;8.80;;;3.60;;
77262;SDS011;66373;52.334;4.806;2023-03-31T01:10:42;8.23;;;3.22;;
77262;SDS011;66373;52.334;4.806;2023-03-31T01:13:12;6.18;;;3.10;;
77262;SDS011;66373;52.334;4.806;2023-03-31T01:15:42;8.18;;;3.35;;
77262;SDS011;66373;52.334;4.806;2023-03-31T01:18:10;9.20;;;3.40;;
77262;SDS011;66373;52.334;4.806;2023-03-31T01:20:41;5.85;;;3.53;;
77262;SDS011;66373;52.334;4.806;2023-03-31T01:29:46;7.05;;;3.30;;
77262;SDS011;66373;52.334;4.806;2023-03-31T01:32:40;7.20;;;2.90;;
77262;SDS011;66373;52.334;4.806;2023-03-31T01:35:40;8.18;;;3.55;;
77262;SDS011;66373;52.334;4.806;2023-03-31T01:38:39;7.70;;;3.33;;
77262;SDS011;66373;52.334;4.806;2023-03-31T01:41:37;9.00;;;2.83;;
77262;SDS011;66373;52.334;4.806;2023-03-31T01:44:14;8.10;;;3.33;;
77262;SDS011;66373;52.334;4.806;2023-03-31T01:46:49;6.45;;;3.28;;
77262;SDS011;66373;52.334;4.806;2023-03-31T01:49:22;8.38;;;3.55;;
77262;SDS011;66373;52.334;4.806;2023-03-31T01:51:56;5.05;;;2.78;;
77262;SDS011;66373;52.334;4.806;2023-03-31T01:54:29;8.13;;;3.70;;
77262;SDS011;66373;52.334;4.806;2023-03-31T01:57:07;7.40;;;3.35;;
77262;SDS011;66373;52.334;4.806;2023-03-31T01:59:42;9.10;;;3.40;;
77262;SDS011;66373;52.334;4.806;2023-03-31T02:02:16;6.72;;;2.75;;
77262;SDS011;66373;52.334;4.806;2023-03-31T02:04:48;6.85;;;3.30;;
77262;SDS011;66373;52.334;4.806;2023-03-31T02:07:19;6.82;;;3.28;;
77262;SDS011;66373;52.334;4.806;2023-03-31T02:09:50;6.68;;;2.97;;
77262;SDS011;66373;52.334;4.806;2023-03-31T02:12:25;5.82;;;2.97;;
77262;SDS011;66373;52.334;4.806;2023-03-31T02:14:56;8.13;;;3.22;;
77262;SDS011;66373;52.334;4.806;2023-03-31T02:17:26;5.53;;;3.20;;
77262;SDS011;66373;52.334;4.806;2023-03-31T02:19:56;6.50;;;3.22;;
77262;SDS011;66373;52.334;4.806;2023-03-31T02:22:28;6.78;;;2.90;;
77262;SDS011;66373;52.334;4.806;2023-03-31T02:24:58;6.22;;;2.85;;
77262;SDS011;66373;52.334;4.806;2023-03-31T02:27:30;6.03;;;3.33;;
77262;SDS011;66373;52.334;4.806;2023-03-31T02:30:00;5.30;;;2.65;;
77262;SDS011;66373;52.334;4.806;2023-03-31T02:32:30;7.80;;;3.20;;
77262;SDS011;66373;52.334;4.806;2023-03-31T02:35:00;10.38;;;2.83;;
77262;SDS011;66373;52.334;4.806;2023-03-31T02:37:29;7.78;;;3.25;;
77262;SDS011;66373;52.334;4.806;2023-03-31T02:39:58;4.28;;;2.75;;
77262;SDS011;66373;52.334;4.806;2023-03-31T02:42:30;6.00;;;2.97;;
77262;SDS011;66373;52.334;4.806;2023-03-31T02:45:00;4.70;;;2.90;;
77262;SDS011;66373;52.334;4.806;2023-03-31T02:47:29;6.13;;;2.92;;
77262;SDS011;66373;52.334;4.806;2023-03-31T02:49:57;5.78;;;3.30;;
77262;SDS011;66373;52.334;4.806;2023-03-31T02:52:37;5.45;;;2.88;;
77262;SDS011;66373;52.334;4.806;2023-03-31T02:55:25;7.47;;;2.65;;
77262;SDS011;66373;52.334;4.806;2023-03-31T03:01:25;4.70;;;2.55;;
77262;SDS011;66373;52.334;4.806;2023-03-31T03:04:07;4.75;;;2.40;;
77262;SDS011;66373;52.334;4.806;2023-03-31T03:06:49;7.75;;;3.65;;
77262;SDS011;66373;52.334;4.806;2023-03-31T03:09:26;5.07;;;2.45;;
77262;SDS011;66373;52.334;4.806;2023-03-31T03:12:06;4.88;;;2.67;;
77262;SDS011;66373;52.334;4.806;2023-03-31T03:14:40;6.63;;;2.67;;
77262;SDS011;66373;52.334;4.806;2023-03-31T03:17:17;7.20;;;2.72;;
77262;SDS011;66373;52.334;4.806;2023-03-31T03:19:51;7.35;;;2.63;;
77262;SDS011;66373;52.334;4.806;2023-03-31T03:22:20;5.22;;;2.75;;
77262;SDS011;66373;52.334;4.806;2023-03-31T03:24:48;4.78;;;2.70;;
77262;SDS011;66373;52.334;4.806;2023-03-31T03:27:16;5.22;;;2.47;;
77262;SDS011;66373;52.334;4.806;2023-03-31T03:29:43;6.10;;;2.83;;
77262;SDS011;66373;52.334;4.806;2023-03-31T03:32:11;4.90;;;2.47;;
77262;SDS011;66373;52.334;4.806;2023-03-31T03:34:41;5.90;;;2.55;;
77262;SDS011;66373;52.334;4.806;2023-03-31T03:37:08;5.18;;;2.25;;
77262;SDS011;66373;52.334;4.806;2023-03-31T03:39:39;4.35;;;2.33;;
77262;SDS011;66373;52.334;4.806;2023-03-31T03:42:08;3.47;;;2.15;;
77262;SDS011;66373;52.334;4.806;2023-03-31T03:44:36;4.93;;;2.63;;
77262;SDS011;66373;52.334;4.806;2023-03-31T03:47:04;5.72;;;2.78;;
77262;SDS011;66373;52.334;4.806;2023-03-31T03:49:33;5.35;;;2.72;;
77262;SDS011;66373;52.334;4.806;2023-03-31T03:52:02;4.82;;;2.40;;
77262;SDS011;66373;52.334;4.806;2023-03-31T03:54:30;4.75;;;2.50;;
77262;SDS011;66373;52.334;4.806;2023-03-31T03:56:57;4.75;;;2.78;;
77262;SDS011;66373;52.334;4.806;2023-03-31T03:59:25;3.47;;;2.05;;
77262;SDS011;66373;52.334;4.806;2023-03-31T04:01:52;4.10;;;2.15;;
77262;SDS011;66373;52.334;4.806;2023-03-31T04:04:20;3.03;;;2.38;;
77262;SDS011;66373;52.334;4.806;2023-03-31T04:06:51;5.75;;;2.63;;
77262;SDS011;66373;52.334;4.806;2023-03-31T04:09:21;4.95;;;2.22;;
77262;SDS011;66373;52.334;4.806;2023-03-31T04:11:48;4.82;;;2.35;;
77262;SDS011;66373;52.334;4.806;2023-03-31T04:14:15;5.63;;;2.50;;
77262;SDS011;66373;52.334;4.806;2023-03-31T04:16:43;3.53;;;2.15;;
77262;SDS011;66373;52.334;4.806;2023-03-31T04:19:13;4.40;;;2.63;;
77262;SDS011;66373;52.334;4.806;2023-03-31T04:21:43;4.85;;;2.40;;
77262;SDS011;66373;52.334;4.806;2023-03-31T04:24:11;2.35;;;2.15;;
77262;SDS011;66373;52.334;4.806;2023-03-31T04:26:47;5.35;;;2.33;;
77262;SDS011;66373;52.334;4.806;2023-03-31T04:29:15;5.45;;;2.42;;
77262;SDS011;66373;52.334;4.806;2023-03-31T04:31:45;5.28;;;2.63;;
77262;SDS011;66373;52.334;4.806;2023-03-31T04:34:12;3.72;;;2.10;;
77262;SDS011;66373;52.334;4.806;2023-03-31T04:36:41;3.83;;;1.90;;
77262;SDS011;66373;52.334;4.806;2023-03-31T04:39:11;5.38;;;2.25;;
77262;SDS011;66373;52.334;4.806;2023-03-31T04:41:39;4.50;;;2.15;;
77262;SDS011;66373;52.334;4.806;2023-03-31T04:44:08;3.53;;;2.30;;
77262;SDS011;66373;52.334;4.806;2023-03-31T04:46:35;4.85;;;2.28;;
77262;SDS011;66373;52.334;4.806;2023-03-31T04:49:03;2.72;;;2.22;;
77262;SDS011;66373;52.334;4.806;2023-03-31T04:51:30;2.90;;;2.10;;
77262;SDS011;66373;52.334;4.806;2023-03-31T04:53:58;5.65;;;2.40;;
77262;SDS011;66373;52.334;4.806;2023-03-31T04:56:25;3.05;;;2.10;;
77262;SDS011;66373;52.334;4.806;2023-03-31T04:58:52;4.30;;;1.80;;
77262;SDS011;66373;52.334;4.806;2023-03-31T05:01:21;3.63;;;2.20;;
77262;SDS011;66373;52.334;4.806;2023-03-31T05:03:49;3.22;;;2.17;;
77262;SDS011;66373;52.334;4.806;2023-03-31T05:06:16;2.47;;;2.00;;
77262;SDS011;66373;52.334;4.806;2023-03-31T05:08:43;2.42;;;2.00;;
77262;SDS011;66373;52.334;4.806;2023-03-31T05:11:11;4.40;;;2.20;;
77262;SDS011;66373;52.334;4.806;2023-03-31T05:13:38;3.33;;;2.03;;
77262;SDS011;66373;52.334;4.806;2023-03-31T05:16:06;4.05;;;2.55;;
77262;SDS011;66373;52.334;4.806;2023-03-31T05:18:35;7.25;;;2.20;;
77262;SDS011;66373;52.334;4.806;2023-03-31T05:21:09;2.58;;;1.98;;
77262;SDS011;66373;52.334;4.806;2023-03-31T05:23:38;4.30;;;2.10;;
77262;SDS011;66373;52.334;4.806;2023-03-31T05:26:05;6.07;;;2.25;;
77262;SDS011;66373;52.334;4.806;2023-03-31T05:28:33;6.22;;;2.33;;
77262;SDS011;66373;52.334;4.806;2023-03-31T05:31:01;3.20;;;2.22;;
77262;SDS011;66373;52.334;4.806;2023-03-31T05:33:29;4.15;;;2.28;;
77262;SDS011;66373;52.334;4.806;2023-03-31T05:35:58;4.57;;;2.03;;
77262;SDS011;66373;52.334;4.806;2023-03-31T05:38:26;4.20;;;1.90;;
77262;SDS011;66373;52.334;4.806;2023-03-31T05:40:55;2.42;;;1.90;;
77262;SDS011;66373;52.334;4.806;2023-03-31T05:43:23;6.63;;;1.92;;
77262;SDS011;66373;52.334;4.806;2023-03-31T05:45:50;4.68;;;2.22;;
77262;SDS011;66373;52.334;4.806;2023-03-31T05:48:18;4.22;;;2.17;;
77262;SDS011;66373;52.334;4.806;2023-03-31T05:50:45;5.90;;;2.33;;
77262;SDS011;66373;52.334;4.806;2023-03-31T05:53:14;5.00;;;2.28;;
77262;SDS011;66373;52.334;4.806;2023-03-31T05:55:41;5.60;;;1.80;;
77262;SDS011;66373;52.334;4.806;2023-03-31T05:58:09;7.55;;;2.08;;
77262;SDS011;66373;52.334;4.806;2023-03-31T06:00:36;3.80;;;2.03;;
77262;SDS011;66373;52.334;4.806;2023-03-31T06:03:02;4.55;;;2.10;;
77262;SDS011;66373;52.334;4.806;2023-03-31T06:05:32;6.25;;;2.20;;
77262;SDS011;66373;52.334;4.806;2023-03-31T06:08:00;3.10;;;1.90;;
77262;SDS011;66373;52.334;4.806;2023-03-31T06:10:29;4.53;;;2.25;;
77262;SDS011;66373;52.334;4.806;2023-03-31T06:12:56;4.90;;;1.65;;
77262;SDS011;66373;52.334;4.806;2023-03-31T06:15:24;4.45;;;1.88;;
77262;SDS011;66373;52.334;4.806;2023-03-31T06:17:51;3.65;;;1.90;;
77262;SDS011;66373;52.334;4.806;2023-03-31T06:20:19;6.18;;;1.90;;
77262;SDS011;66373;52.334;4.806;2023-03-31T06:22:47;6.30;;;1.92;;
77262;SDS011;66373;52.334;4.806;2023-03-31T06:25:15;6.55;;;2.00;;
77262;SDS011;66373;52.334;4.806;2023-03-31T06:27:43;5.25;;;1.80;;
77262;SDS011;66373;52.334;4.806;2023-03-31T06:30:11;6.78;;;2.40;;
77262;SDS011;66373;52.334;4.806;2023-03-31T06:32:39;6.55;;;1.80;;
77262;SDS011;66373;52.334;4.806;2023-03-31T06:35:07;6.93;;;2.03;;
77262;SDS011;66373;52.334;4.806;2023-03-31T06:37:35;4.45;;;1.95;;
77262;SDS011;66373;52.334;4.806;2023-03-31T06:40:02;8.65;;;2.47;;
77262;SDS011;66373;52.334;4.806;2023-03-31T06:42:30;4.93;;;1.83;;
77262;SDS011;66373;52.334;4.806;2023-03-31T06:44:59;4.35;;;2.17;;
77262;SDS011;66373;52.334;4.806;2023-03-31T06:47:26;3.63;;;1.92;;
77262;SDS011;66373;52.334;4.806;2023-03-31T06:49:54;3.92;;;2.05;;
77262;SDS011;66373;52.334;4.806;2023-03-31T06:52:21;2.92;;;2.00;;
77262;SDS011;66373;52.334;4.806;2023-03-31T06:54:48;6.18;;;2.35;;
77262;SDS011;66373;52.334;4.806;2023-03-31T06:57:16;2.42;;;1.73;;
77262;SDS011;66373;52.334;4.806;2023-03-31T06:59:45;3.40;;;1.70;;
77262;SDS011;66373;52.334;4.806;2023-03-31T07:02:14;6.70;;;2.05;;
77262;SDS011;66373;52.334;4.806;2023-03-31T07:04:41;6.00;;;2.20;;
77262;SDS011;66373;52.334;4.806;2023-03-31T07:07:09;8.48;;;2.20;;
77262;SDS011;66373;52.334;4.806;2023-03-31T07:09:36;5.68;;;2.00;;
77262;SDS011;66373;52.334;4.806;2023-03-31T07:12:04;6.07;;;2.15;;
77262;SDS011;66373;52.334;4.806;2023-03-31T07:14:31;3.67;;;2.08;;
77262;SDS011;66373;52.334;4.806;2023-03-31T07:16:59;7.95;;;2.13;;
77262;SDS011;66373;52.334;4.806;2023-03-31T07:19:27;3.03;;;1.70;;
77262;SDS011;66373;52.334;4.806;2023-03-31T07:21:55;4.63;;;2.00;;
77262;SDS011;66373;52.334;4.806;2023-03-31T07:24:25;5.95;;;1.80;;
77262;SDS011;66373;52.334;4.806;2023-03-31T07:26:52;4.68;;;1.85;;
77262;SDS011;66373;52.334;4.806;2023-03-31T07:29:20;4.13;;;1.70;;
77262;SDS011;66373;52.334;4.806;2023-03-31T07:31:48;6.00;;;2.13;;
77262;SDS011;66373;52.334;4.806;2023-03-31T07:34:15;2.95;;;1.75;;
77262;SDS011;66373;52.334;4.806;2023-03-31T07:36:44;2.65;;;1.63;;
77262;SDS011;66373;52.334;4.806;2023-03-31T07:39:12;2.90;;;1.88;;
77262;SDS011;66373;52.334;4.806;2023-03-31T07:41:39;4.90;;;2.00;;
77262;SDS011;66373;52.334;4.806;2023-03-31T07:44:06;3.75;;;1.60;;
77262;SDS011;66373;52.334;4.806;2023-03-31T07:46:34;2.47;;;1.60;;
77262;SDS011;66373;52.334;4.806;2023-03-31T07:49:01;2.33;;;1.65;;
77262;SDS011;66373;52.334;4.806;2023-03-31T07:51:29;7.25;;;2.22;;
77262;SDS011;66373;52.334;4.806;2023-03-31T07:53:58;6.57;;;2.17;;
77262;SDS011;66373;52.334;4.806;2023-03-31T07:56:25;14.55;;;2.13;;
77262;SDS011;66373;52.334;4.806;2023-03-31T07:58:53;3.30;;;1.80;;
77262;SDS011;66373;52.334;4.806;2023-03-31T08:01:21;7.68;;;1.75;;
77262;SDS011;66373;52.334;4.806;2023-03-31T08:03:50;7.93;;;1.88;;
77262;SDS011;66373;52.334;4.806;2023-03-31T08:06:25;8.15;;;2.05;;
77262;SDS011;66373;52.334;4.806;2023-03-31T08:08:55;6.93;;;2.00;;
77262;SDS011;66373;52.334;4.806;2023-03-31T08:11:26;6.53;;;1.65;;
77262;SDS011;66373;52.334;4.806;2023-03-31T08:13:58;5.07;;;1.90;;
77262;SDS011;66373;52.334;4.806;2023-03-31T08:16:30;4.38;;;1.90;;
77262;SDS011;66373;52.334;4.806;2023-03-31T08:18:57;6.97;;;1.83;;
77262;SDS011;66373;52.334;4.806;2023-03-31T08:21:28;1.83;;;1.65;;
77262;SDS011;66373;52.334;4.806;2023-03-31T08:23:56;4.18;;;1.85;;
77262;SDS011;66373;52.334;4.806;2023-03-31T08:26:26;4.43;;;1.83;;
77262;SDS011;66373;52.334;4.806;2023-03-31T08:28:53;5.95;;;2.17;;
77262;SDS011;66373;52.334;4.806;2023-03-31T08:31:23;4.57;;;1.52;;
77262;SDS011;66373;52.334;4.806;2023-03-31T08:33:55;2.72;;;1.77;;
77262;SDS011;66373;52.334;4.806;2023-03-31T08:36:23;1.95;;;1.27;;
77262;SDS011;66373;52.334;4.806;2023-03-31T08:38:51;3.88;;;1.70;;
77262;SDS011;66373;52.334;4.806;2023-03-31T08:41:23;3.53;;;1.55;;
77262;SDS011;66373;52.334;4.806;2023-03-31T08:44:00;3.70;;;1.80;;
77262;SDS011;66373;52.334;4.806;2023-03-31T08:46:32;7.22;;;1.80;;
77262;SDS011;66373;52.334;4.806;2023-03-31T08:49:01;3.10;;;1.92;;
77262;SDS011;66373;52.334;4.806;2023-03-31T08:51:31;8.32;;;2.05;;
77262;SDS011;66373;52.334;4.806;2023-03-31T08:54:02;3.88;;;1.65;;
77262;SDS011;66373;52.334;4.806;2023-03-31T08:56:34;10.15;;;2.00;;
77262;SDS011;66373;52.334;4.806;2023-03-31T08:59:06;9.10;;;2.13;;
77262;SDS011;66373;52.334;4.806;2023-03-31T09:01:48;7.93;;;2.10;;
77262;SDS011;66373;52.334;4.806;2023-03-31T09:04:27;8.98;;;1.85;;
77262;SDS011;66373;52.334;4.806;2023-03-31T09:07:11;4.47;;;1.63;;
77262;SDS011;66373;52.334;4.806;2023-03-31T09:09:46;3.63;;;1.77;;
77262;SDS011;66373;52.334;4.806;2023-03-31T09:12:25;6.90;;;1.65;;
77262;SDS011;66373;52.334;4.806;2023-03-31T09:15:01;6.50;;;2.00;;
77262;SDS011;66373;52.334;4.806;2023-03-31T09:17:37;3.03;;;1.60;;
77262;SDS011;66373;52.334;4.806;2023-03-31T09:20:11;4.63;;;1.73;;
77262;SDS011;66373;52.334;4.806;2023-03-31T09:22:44;2.85;;;1.50;;
77262;SDS011;66373;52.334;4.806;2023-03-31T09:25:15;4.15;;;2.10;;
77262;SDS011;66373;52.334;4.806;2023-03-31T09:27:48;4.72;;;1.90;;
77262;SDS011;66373;52.334;4.806;2023-03-31T09:30:19;5.80;;;1.73;;
77262;SDS011;66373;52.334;4.806;2023-03-31T09:32:51;8.52;;;2.85;;
77262;SDS011;66373;52.334;4.806;2023-03-31T09:35:24;3.25;;;1.70;;
77262;SDS011;66373;52.334;4.806;2023-03-31T09:37:53;5.50;;;1.90;;
77262;SDS011;66373;52.334;4.806;2023-03-31T09:40:22;4.03;;;1.90;;
77262;SDS011;66373;52.334;4.806;2023-03-31T09:42:55;9.13;;;2.30;;
77262;SDS011;66373;52.334;4.806;2023-03-31T09:45:25;3.50;;;1.95;;
77262;SDS011;66373;52.334;4.806;2023-03-31T09:47:55;5.95;;;2.35;;
77262;SDS011;66373;52.334;4.806;2023-03-31T09:50:25;4.15;;;2.25;;
77262;SDS011;66373;52.334;4.806;2023-03-31T09:52:54;4.88;;;1.98;;
77262;SDS011;66373;52.334;4.806;2023-03-31T09:55:24;5.10;;;1.92;;
77262;SDS011;66373;52.334;4.806;2023-03-31T09:58:00;7.68;;;2.30;;
77262;SDS011;66373;52.334;4.806;2023-03-31T10:00:27;5.38;;;2.30;;
77262;SDS011;66373;52.334;4.806;2023-03-31T10:02:55;6.80;;;2.10;;
77262;SDS011;66373;52.334;4.806;2023-03-31T10:05:29;7.68;;;2.30;;
77262;SDS011;66373;52.334;4.806;2023-03-31T10:08:18;4.07;;;2.05;;
77262;SDS011;66373;52.334;4.806;2023-03-31T10:10:50;3.30;;;1.90;;
77262;SDS011;66373;52.334;4.806;2023-03-31T10:13:23;5.47;;;1.88;;
77262;SDS011;66373;52.334;4.806;2023-03-31T10:15:54;3.70;;;2.47;;
77262;SDS011;66373;52.334;4.806;2023-03-31T10:18:33;2.90;;;2.28;;
77262;SDS011;66373;52.334;4.806;2023-03-31T10:21:03;3.45;;;2.20;;
77262;SDS011;66373;52.334;4.806;2023-03-31T10:23:32;5.80;;;2.95;;
77262;SDS011;66373;52.334;4.806;2023-03-31T10:26:01;3.42;;;2.05;;
77262;SDS011;66373;52.334;4.806;2023-03-31T10:28:32;6.68;;;2.13;;
77262;SDS011;66373;52.334;4.806;2023-03-31T10:31:00;4.32;;;2.15;;
77262;SDS011;66373;52.334;4.806;2023-03-31T10:33:28;6.95;;;2.40;;
77262;SDS011;66373;52.334;4.806;2023-03-31T10:35:59;5.20;;;2.67;;
77262;SDS011;66373;52.334;4.806;2023-03-31T10:38:29;4.25;;;2.45;;
77262;SDS011;66373;52.334;4.806;2023-03-31T10:41:00;6.95;;;2.83;;
77262;SDS011;66373;52.334;4.806;2023-03-31T10:43:29;7.07;;;2.75;;
77262;SDS011;66373;52.334;4.806;2023-03-31T10:46:02;7.90;;;2.40;;
77262;SDS011;66373;52.334;4.806;2023-03-31T10:48:30;6.32;;;2.63;;
77262;SDS011;66373;52.334;4.806;2023-03-31T10:50:59;10.68;;;2.88;;
77262;SDS011;66373;52.334;4.806;2023-03-31T10:56:33;8.02;;;3.25;;
77262;SDS011;66373;52.334;4.806;2023-03-31T10:59:08;5.93;;;2.65;;
77262;SDS011;66373;52.334;4.806;2023-03-31T11:02:11;6.28;;;2.47;;
77262;SDS011;66373;52.334;4.806;2023-03-31T11:04:49;5.60;;;2.35;;
77262;SDS011;66373;52.334;4.806;2023-03-31T11:07:34;4.90;;;2.30;;
77262;SDS011;66373;52.334;4.806;2023-03-31T11:10:16;8.35;;;2.65;;
77262;SDS011;66373;52.334;4.806;2023-03-31T11:12:55;8.43;;;3.47;;
77262;SDS011;66373;52.334;4.806;2023-03-31T11:15:28;6.63;;;2.65;;
77262;SDS011;66373;52.334;4.806;2023-03-31T11:18:05;4.15;;;2.63;;
77262;SDS011;66373;52.334;4.806;2023-03-31T11:20:52;5.55;;;2.47;;
77262;SDS011;66373;52.334;4.806;2023-03-31T11:23:25;6.28;;;2.72;;
77262;SDS011;66373;52.334;4.806;2023-03-31T11:26:05;5.50;;;2.65;;
77262;SDS011;66373;52.334;4.806;2023-03-31T11:28:38;6.05;;;2.35;;
77262;SDS011;66373;52.334;4.806;2023-03-31T11:31:20;6.40;;;2.47;;
77262;SDS011;66373;52.334;4.806;2023-03-31T11:34:03;6.45;;;2.55;;
77262;SDS011;66373;52.334;4.806;2023-03-31T11:36:40;5.43;;;2.65;;
77262;SDS011;66373;52.334;4.806;2023-03-31T11:39:30;3.92;;;2.20;;
77262;SDS011;66373;52.334;4.806;2023-03-31T11:42:07;6.10;;;2.20;;
77262;SDS011;66373;52.334;4.806;2023-03-31T11:44:37;7.47;;;2.83;;
77262;SDS011;66373;52.334;4.806;2023-03-31T11:47:08;9.20;;;2.28;;
77262;SDS011;66373;52.334;4.806;2023-03-31T11:54:41;5.18;;;2.00;;
77262;SDS011;66373;52.334;4.806;2023-03-31T11:57:17;16.50;;;2.92;;
77262;SDS011;66373;52.334;4.806;2023-03-31T11:59:48;5.45;;;2.90;;
77262;SDS011;66373;52.334;4.806;2023-03-31T12:02:22;5.82;;;2.25;;
77262;SDS011;66373;52.334;4.806;2023-03-31T12:05:01;5.05;;;2.20;;
77262;SDS011;66373;52.334;4.806;2023-03-31T12:07:33;6.43;;;2.80;;
77262;SDS011;66373;52.334;4.806;2023-03-31T12:10:10;10.57;;;2.67;;
77262;SDS011;66373;52.334;4.806;2023-03-31T12:12:45;4.53;;;2.40;;
77262;SDS011;66373;52.334;4.806;2023-03-31T12:15:20;8.38;;;2.65;;
77262;SDS011;66373;52.334;4.806;2023-03-31T12:17:53;6.53;;;2.38;;
77262;SDS011;66373;52.334;4.806;2023-03-31T12:20:29;5.30;;;2.55;;
77262;SDS011;66373;52.334;4.806;2023-03-31T12:23:00;3.80;;;2.33;;
77262;SDS011;66373;52.334;4.806;2023-03-31T12:25:37;6.43;;;2.55;;
77262;SDS011;66373;52.334;4.806;2023-03-31T12:30:38;4.53;;;2.20;;
77262;SDS011;66373;52.334;4.806;2023-03-31T12:33:13;4.97;;;2.60;;
77262;SDS011;66373;52.334;4.806;2023-03-31T12:35:52;4.82;;;2.47;;
77262;SDS011;66373;52.334;4.806;2023-03-31T12:38:34;5.82;;;2.50;;
77262;SDS011;66373;52.334;4.806;2023-03-31T12:41:13;6.55;;;2.88;;
77262;SDS011;66373;52.334;4.806;2023-03-31T12:43:55;7.82;;;2.50;;
77262;SDS011;66373;52.334;4.806;2023-03-31T12:46:47;6.82;;;2.38;;
77262;SDS011;66373;52.334;4.806;2023-03-31T12:49:38;6.75;;;2.72;;
77262;SDS011;66373;52.334;4.806;2023-03-31T12:55:18;6.53;;;2.30;;
77262;SDS011;66373;52.334;4.806;2023-03-31T12:58:01;6.95;;;2.63;;
77262;SDS011;66373;52.334;4.806;2023-03-31T13:01:16;8.18;;;2.60;;
77262;SDS011;66373;52.334;4.806;2023-03-31T13:03:46;5.50;;;2.70;;
77262;SDS011;66373;52.334;4.806;2023-03-31T13:12:22;3.42;;;2.58;;
77262;SDS011;66373;52.334;4.806;2023-03-31T13:14:52;6.72;;;2.50;;
77262;SDS011;66373;52.334;4.806;2023-03-31T13:17:25;5.88;;;2.45;;
77262;SDS011;66373;52.334;4.806;2023-03-31T13:20:13;4.85;;;2.42;;
77262;SDS011;66373;52.334;4.806;2023-03-31T13:22:44;7.40;;;2.20;;
77262;SDS011;66373;52.334;4.806;2023-03-31T13:25:32;6.47;;;2.63;;
77262;SDS011;66373;52.334;4.806;2023-03-31T13:28:12;4.70;;;2.60;;
77262;SDS011;66373;52.334;4.806;2023-03-31T13:30:51;6.25;;;2.80;;
77262;SDS011;66373;52.334;4.806;2023-03-31T13:33:24;4.45;;;2.50;;
77262;SDS011;66373;52.334;4.806;2023-03-31T13:35:57;5.80;;;2.40;;
77262;SDS011;66373;52.334;4.806;2023-03-31T13:38:40;8.20;;;2.70;;
77262;SDS011;66373;52.334;4.806;2023-03-31T13:41:28;4.18;;;2.53;;
77262;SDS011;66373;52.334;4.806;2023-03-31T13:44:08;5.72;;;2.63;;
77262;SDS011;66373;52.334;4.806;2023-03-31T13:50:01;5.75;;;2.50;;
77262;SDS011;66373;52.334;4.806;2023-03-31T13:52:42;4.90;;;2.90;;
77262;SDS011;66373;52.334;4.806;2023-03-31T13:55:33;4.47;;;2.50;;
77262;SDS011;66373;52.334;4.806;2023-03-31T13:58:29;6.47;;;2.28;;
77262;SDS011;66373;52.334;4.806;2023-03-31T14:01:15;5.20;;;2.40;;
77262;SDS011;66373;52.334;4.806;2023-03-31T14:04:05;5.43;;;2.80;;
77262;SDS011;66373;52.334;4.806;2023-03-31T14:06:43;6.00;;;2.63;;
77262;SDS011;66373;52.334;4.806;2023-03-31T14:09:18;5.00;;;2.58;;
77262;SDS011;66373;52.334;4.806;2023-03-31T14:11:52;7.50;;;2.42;;
77262;SDS011;66373;52.334;4.806;2023-03-31T14:14:23;3.35;;;2.30;;
77262;SDS011;66373;52.334;4.806;2023-03-31T14:16:51;3.38;;;2.65;;
77262;SDS011;66373;52.334;4.806;2023-03-31T14:19:40;4.15;;;2.60;;
77262;SDS011;66373;52.334;4.806;2023-03-31T14:22:27;8.05;;;3.15;;
77262;SDS011;66373;52.334;4.806;2023-03-31T14:25:12;4.70;;;2.70;;
77262;SDS011;66373;52.334;4.806;2023-03-31T14:27:49;4.32;;;2.50;;
77262;SDS011;66373;52.334;4.806;2023-03-31T14:30:28;5.38;;;3.28;;
77262;SDS011;66373;52.334;4.806;2023-03-31T14:33:10;4.88;;;2.58;;
77262;SDS011;66373;52.334;4.806;2023-03-31T14:35:52;6.43;;;3.13;;
77262;SDS011;66373;52.334;4.806;2023-03-31T14:38:26;5.43;;;2.83;;
77262;SDS011;66373;52.334;4.806;2023-03-31T14:40:54;3.97;;;2.67;;
77262;SDS011;66373;52.334;4.806;2023-03-31T14:43:26;4.22;;;2.72;;
77262;SDS011;66373;52.334;4.806;2023-03-31T14:46:00;5.90;;;2.95;;
77262;SDS011;66373;52.334;4.806;2023-03-31T14:48:30;3.13;;;2.55;;
77262;SDS011;66373;52.334;4.806;2023-03-31T14:51:00;5.22;;;2.90;;
77262;SDS011;66373;52.334;4.806;2023-03-31T14:53:30;4.22;;;2.70;;
77262;SDS011;66373;52.334;4.806;2023-03-31T14:55:59;5.63;;;2.88;;
77262;SDS011;66373;52.334;4.806;2023-03-31T14:58:33;5.47;;;3.03;;
77262;SDS011;66373;52.334;4.806;2023-03-31T15:01:05;4.85;;;3.05;;
77262;SDS011;66373;52.334;4.806;2023-03-31T15:03:38;4.20;;;2.88;;
77262;SDS011;66373;52.334;4.806;2023-03-31T15:06:14;5.72;;;2.88;;
77262;SDS011;66373;52.334;4.806;2023-03-31T15:08:43;5.22;;;3.38;;
77262;SDS011;66373;52.334;4.806;2023-03-31T15:11:13;5.60;;;3.15;;
77262;SDS011;66373;52.334;4.806;2023-03-31T15:13:45;5.32;;;3.33;;
77262;SDS011;66373;52.334;4.806;2023-03-31T15:16:20;5.28;;;3.55;;
77262;SDS011;66373;52.334;4.806;2023-03-31T15:18:57;4.45;;;3.35;;
77262;SDS011;66373;52.334;4.806;2023-03-31T15:21:26;6.15;;;3.30;;
77262;SDS011;66373;52.334;4.806;2023-03-31T15:23:57;6.32;;;3.42;;
77262;SDS011;66373;52.334;4.806;2023-03-31T15:26:25;5.75;;;3.70;;
77262;SDS011;66373;52.334;4.806;2023-03-31T15:29:00;4.68;;;3.65;;
77262;SDS011;66373;52.334;4.806;2023-03-31T15:31:32;6.75;;;3.92;;
77262;SDS011;66373;52.334;4.806;2023-03-31T15:34:10;5.85;;;3.55;;
77262;SDS011;66373;52.334;4.806;2023-03-31T15:36:39;5.20;;;4.13;;
77262;SDS011;66373;52.334;4.806;2023-03-31T15:39:06;9.10;;;4.20;;
77262;SDS011;66373;52.334;4.806;2023-03-31T15:41:34;6.80;;;4.68;;
77262;SDS011;66373;52.334;4.806;2023-03-31T15:44:03;5.80;;;4.35;;
77262;SDS011;66373;52.334;4.806;2023-03-31T15:46:56;6.20;;;4.93;;
77262;SDS011;66373;52.334;4.806;2023-03-31T15:49:24;6.78;;;4.78;;
77262;SDS011;66373;52.334;4.806;2023-03-31T15:51:53;9.55;;;5.50;;
77262;SDS011;66373;52.334;4.806;2023-03-31T15:54:27;7.53;;;4.90;;